createdAt,value
2023-06-29T00:02:04.176Z,1016.36
2023-06-29T00:32:04.181Z,1016.39
2023-06-29T01:02:04.172Z,1016.2
2023-06-29T01:32:04.291Z,1016.12
2023-06-29T02:02:04.207Z,1016.07
2023-06-29T02:32:04.185Z,1016.07
2023-06-29T03:02:04.260Z,1015.8
2023-06-29T03:32:04.194Z,1015.67
2023-06-29T04:02:04.244Z,1015.56
2023-06-29T04:32:04.206Z,1015.6
2023-06-29T05:02:04.236Z,1015.53
2023-06-29T05:32:04.216Z,1015.5
2023-06-29T06:02:04.232Z,1015.38
2023-06-29T06:32:04.326Z,1015.25
2023-06-29T07:02:04.302Z,1015.28
2023-06-29T07:32:04.254Z,1015.08
2023-06-29T08:02:04.352Z,1014.9
2023-06-29T08:32:04.320Z,1014.57
2023-06-29T09:02:04.278Z,1014.52
2023-06-29T09:32:04.318Z,1014.29
2023-06-29T10:02:04.338Z,1014.01
2023-06-29T10:32:04.289Z,1013.74
2023-06-29T11:02:04.334Z,1013.53
2023-06-29T11:32:04.444Z,1013.2
2023-06-29T12:02:04.285Z,1012.8
2023-06-29T12:32:04.284Z,1012.54
2023-06-29T13:02:04.393Z,1012.43
2023-06-29T13:32:04.288Z,1012.27
2023-06-29T14:02:04.397Z,1011.94
2023-06-29T14:32:04.393Z,1011.78
2023-06-29T15:02:04.310Z,1011.53
2023-06-29T15:32:04.367Z,1011.32
2023-06-29T16:02:04.393Z,1011.03
2023-06-29T16:32:04.452Z,1010.79
2023-06-29T17:02:04.394Z,1010.97
2023-06-29T17:32:04.499Z,1011.38
2023-06-29T18:02:04.427Z,1011.42
2023-06-29T18:32:04.371Z,1011.16
2023-06-29T19:02:04.368Z,1011.27
2023-06-29T19:32:04.924Z,1011.35
2023-06-29T20:02:04.366Z,1011.69
2023-06-29T20:32:04.385Z,1011.66
2023-06-29T21:02:04.436Z,1011.7
2023-06-29T21:32:04.627Z,1011.4
2023-06-29T22:02:04.426Z,1011.43
2023-06-29T22:32:04.397Z,1011.56
2023-06-29T23:02:04.401Z,1011.42
2023-06-29T23:32:04.397Z,1011.37
